sensor_id;sensor_type;location;lat;lon;timestamp;P1;durP1;ratioP1;P2;durP2;ratioP2
1685;SDS011;840;47.980;7.830;2024-02-21T00:01:43;4.30;;;2.53;;
1685;SDS011;840;47.980;7.830;2024-02-21T00:04:11;4.33;;;2.20;;
1685;SDS011;840;47.980;7.830;2024-02-21T00:06:38;5.97;;;2.73;;
1685;SDS011;840;47.980;7.830;2024-02-21T00:09:05;3.23;;;2.97;;
1685;SDS011;840;47.980;7.830;2024-02-21T00:11:31;3.03;;;2.73;;
1685;SDS011;840;47.980;7.830;2024-02-21T00:13:58;4.60;;;3.40;;
1685;SDS011;840;47.980;7.830;2024-02-21T00:16:25;5.40;;;3.30;;
1685;SDS011;840;47.980;7.830;2024-02-21T00:18:52;4.30;;;2.10;;
1685;SDS011;840;47.980;7.830;2024-02-21T00:21:20;6.07;;;2.70;;
1685;SDS011;840;47.980;7.830;2024-02-21T00:23:47;3.20;;;2.90;;
1685;SDS011;840;47.980;7.830;2024-02-21T00:26:15;3.30;;;3.00;;
1685;SDS011;840;47.980;7.830;2024-02-21T00:28:42;3.93;;;3.10;;
1685;SDS011;840;47.980;7.830;2024-02-21T00:31:10;5.87;;;3.70;;
1685;SDS011;840;47.980;7.830;2024-02-21T00:33:37;4.50;;;3.20;;
1685;SDS011;840;47.980;7.830;2024-02-21T00:36:04;3.27;;;3.00;;
1685;SDS011;840;47.980;7.830;2024-02-21T00:38:33;3.27;;;2.60;;
1685;SDS011;840;47.980;7.830;2024-02-21T00:40:59;3.73;;;3.20;;
1685;SDS011;840;47.980;7.830;2024-02-21T00:43:26;4.00;;;2.00;;
1685;SDS011;840;47.980;7.830;2024-02-21T00:45:53;6.17;;;2.53;;
1685;SDS011;840;47.980;7.830;2024-02-21T00:48:19;3.40;;;2.37;;
1685;SDS011;840;47.980;7.830;2024-02-21T00:50:46;2.27;;;2.17;;
1685;SDS011;840;47.980;7.830;2024-02-21T00:53:13;3.50;;;2.60;;
1685;SDS011;840;47.980;7.830;2024-02-21T00:55:41;5.07;;;2.07;;
1685;SDS011;840;47.980;7.830;2024-02-21T00:58:08;3.77;;;2.37;;
1685;SDS011;840;47.980;7.830;2024-02-21T01:00:35;4.93;;;2.80;;
1685;SDS011;840;47.980;7.830;2024-02-21T01:03:02;3.50;;;2.50;;
1685;SDS011;840;47.980;7.830;2024-02-21T01:05:29;4.10;;;2.87;;
1685;SDS011;840;47.980;7.830;2024-02-21T01:07:56;3.20;;;2.10;;
1685;SDS011;840;47.980;7.830;2024-02-21T01:10:22;3.43;;;2.13;;
1685;SDS011;840;47.980;7.830;2024-02-21T01:12:50;3.70;;;2.57;;
1685;SDS011;840;47.980;7.830;2024-02-21T01:15:17;2.60;;;1.83;;
1685;SDS011;840;47.980;7.830;2024-02-21T01:17:44;3.13;;;2.10;;
1685;SDS011;840;47.980;7.830;2024-02-21T01:20:11;4.57;;;2.30;;
1685;SDS011;840;47.980;7.830;2024-02-21T01:22:38;3.07;;;2.27;;
1685;SDS011;840;47.980;7.830;2024-02-21T01:25:05;3.53;;;1.90;;
1685;SDS011;840;47.980;7.830;2024-02-21T01:27:32;4.53;;;2.60;;
1685;SDS011;840;47.980;7.830;2024-02-21T01:30:00;7.70;;;2.27;;
1685;SDS011;840;47.980;7.830;2024-02-21T01:32:27;2.33;;;1.87;;
1685;SDS011;840;47.980;7.830;2024-02-21T01:34:53;4.90;;;2.43;;
1685;SDS011;840;47.980;7.830;2024-02-21T01:37:20;4.37;;;2.17;;
1685;SDS011;840;47.980;7.830;2024-02-21T01:39:47;3.77;;;2.70;;
1685;SDS011;840;47.980;7.830;2024-02-21T01:42:14;3.47;;;2.63;;
1685;SDS011;840;47.980;7.830;2024-02-21T01:44:41;2.50;;;2.10;;
1685;SDS011;840;47.980;7.830;2024-02-21T01:47:11;2.00;;;1.90;;
1685;SDS011;840;47.980;7.830;2024-02-21T01:49:39;6.97;;;2.67;;
1685;SDS011;840;47.980;7.830;2024-02-21T01:52:06;5.00;;;2.30;;
1685;SDS011;840;47.980;7.830;2024-02-21T01:54:33;5.50;;;2.63;;
1685;SDS011;840;47.980;7.830;2024-02-21T01:57:01;6.07;;;2.30;;
1685;SDS011;840;47.980;7.830;2024-02-21T01:59:28;2.10;;;2.00;;
1685;SDS011;840;47.980;7.830;2024-02-21T02:01:54;2.70;;;2.03;;
1685;SDS011;840;47.980;7.830;2024-02-21T02:04:23;5.60;;;2.17;;
1685;SDS011;840;47.980;7.830;2024-02-21T02:06:55;6.20;;;1.97;;
1685;SDS011;840;47.980;7.830;2024-02-21T02:09:22;4.90;;;2.43;;
1685;SDS011;840;47.980;7.830;2024-02-21T02:11:49;4.77;;;2.30;;
1685;SDS011;840;47.980;7.830;2024-02-21T02:14:16;12.70;;;2.20;;
1685;SDS011;840;47.980;7.830;2024-02-21T02:16:45;2.80;;;1.63;;
1685;SDS011;840;47.980;7.830;2024-02-21T02:19:12;4.20;;;2.23;;
1685;SDS011;840;47.980;7.830;2024-02-21T02:21:42;5.83;;;2.80;;
1685;SDS011;840;47.980;7.830;2024-02-21T02:24:14;4.57;;;2.57;;
1685;SDS011;840;47.980;7.830;2024-02-21T02:26:41;3.17;;;1.87;;
1685;SDS011;840;47.980;7.830;2024-02-21T02:29:08;2.10;;;1.33;;
1685;SDS011;840;47.980;7.830;2024-02-21T02:31:35;5.60;;;2.60;;
1685;SDS011;840;47.980;7.830;2024-02-21T02:34:02;3.73;;;2.13;;
1685;SDS011;840;47.980;7.830;2024-02-21T02:36:30;2.80;;;2.57;;
1685;SDS011;840;47.980;7.830;2024-02-21T02:38:58;4.70;;;2.20;;
1685;SDS011;840;47.980;7.830;2024-02-21T02:41:26;5.70;;;2.23;;
1685;SDS011;840;47.980;7.830;2024-02-21T02:43:53;2.80;;;1.60;;
1685;SDS011;840;47.980;7.830;2024-02-21T02:46:20;2.40;;;2.20;;
1685;SDS011;840;47.980;7.830;2024-02-21T02:48:46;3.73;;;2.47;;
1685;SDS011;840;47.980;7.830;2024-02-21T02:51:13;2.33;;;2.03;;
1685;SDS011;840;47.980;7.830;2024-02-21T02:53:40;4.57;;;1.60;;
1685;SDS011;840;47.980;7.830;2024-02-21T02:56:06;4.40;;;2.33;;
1685;SDS011;840;47.980;7.830;2024-02-21T02:58:34;2.07;;;1.43;;
1685;SDS011;840;47.980;7.830;2024-02-21T03:01:01;3.30;;;1.53;;
1685;SDS011;840;47.980;7.830;2024-02-21T03:03:29;2.47;;;1.23;;
1685;SDS011;840;47.980;7.830;2024-02-21T03:05:57;3.33;;;1.87;;
1685;SDS011;840;47.980;7.830;2024-02-21T03:08:24;3.10;;;2.10;;
1685;SDS011;840;47.980;7.830;2024-02-21T03:10:50;1.90;;;1.70;;
1685;SDS011;840;47.980;7.830;2024-02-21T03:13:17;2.90;;;1.60;;
1685;SDS011;840;47.980;7.830;2024-02-21T03:15:45;4.93;;;2.63;;
1685;SDS011;840;47.980;7.830;2024-02-21T03:18:12;3.03;;;2.43;;
1685;SDS011;840;47.980;7.830;2024-02-21T03:20:38;2.50;;;1.90;;
1685;SDS011;840;47.980;7.830;2024-02-21T03:23:05;2.50;;;1.93;;
1685;SDS011;840;47.980;7.830;2024-02-21T03:25:32;2.67;;;1.50;;
1685;SDS011;840;47.980;7.830;2024-02-21T03:28:01;3.03;;;1.77;;
1685;SDS011;840;47.980;7.830;2024-02-21T03:30:28;6.20;;;2.33;;
1685;SDS011;840;47.980;7.830;2024-02-21T03:32:56;2.00;;;1.63;;
1685;SDS011;840;47.980;7.830;2024-02-21T03:35:23;7.93;;;2.43;;
1685;SDS011;840;47.980;7.830;2024-02-21T03:37:51;4.70;;;2.23;;
1685;SDS011;840;47.980;7.830;2024-02-21T03:40:18;3.97;;;1.97;;
1685;SDS011;840;47.980;7.830;2024-02-21T03:42:44;2.93;;;1.43;;
1685;SDS011;840;47.980;7.830;2024-02-21T03:45:11;3.60;;;2.30;;
1685;SDS011;840;47.980;7.830;2024-02-21T03:47:38;6.80;;;2.60;;
1685;SDS011;840;47.980;7.830;2024-02-21T03:50:06;1.40;;;1.23;;
1685;SDS011;840;47.980;7.830;2024-02-21T03:52:34;2.43;;;1.33;;
1685;SDS011;840;47.980;7.830;2024-02-21T03:55:00;7.87;;;2.30;;
1685;SDS011;840;47.980;7.830;2024-02-21T03:57:27;2.97;;;1.80;;
1685;SDS011;840;47.980;7.830;2024-02-21T03:59:54;3.77;;;2.20;;
1685;SDS011;840;47.980;7.830;2024-02-21T04:02:20;3.23;;;2.20;;
1685;SDS011;840;47.980;7.830;2024-02-21T04:04:47;2.40;;;1.50;;
1685;SDS011;840;47.980;7.830;2024-02-21T04:07:15;3.43;;;1.70;;
1685;SDS011;840;47.980;7.830;2024-02-21T04:09:42;1.50;;;1.37;;
1685;SDS011;840;47.980;7.830;2024-02-21T04:12:09;1.43;;;1.33;;
1685;SDS011;840;47.980;7.830;2024-02-21T04:14:35;1.53;;;1.37;;
1685;SDS011;840;47.980;7.830;2024-02-21T04:17:02;2.30;;;1.93;;
1685;SDS011;840;47.980;7.830;2024-02-21T04:19:30;6.23;;;1.90;;
1685;SDS011;840;47.980;7.830;2024-02-21T04:21:57;1.90;;;1.17;;
1685;SDS011;840;47.980;7.830;2024-02-21T04:24:25;4.10;;;1.80;;
1685;SDS011;840;47.980;7.830;2024-02-21T04:26:51;3.13;;;1.97;;
1685;SDS011;840;47.980;7.830;2024-02-21T04:29:18;3.80;;;1.63;;
1685;SDS011;840;47.980;7.830;2024-02-21T04:31:45;2.13;;;1.93;;
1685;SDS011;840;47.980;7.830;2024-02-21T04:34:11;2.67;;;1.40;;
1685;SDS011;840;47.980;7.830;2024-02-21T04:36:38;3.50;;;1.70;;
1685;SDS011;840;47.980;7.830;2024-02-21T04:39:05;2.33;;;1.40;;
1685;SDS011;840;47.980;7.830;2024-02-21T04:41:33;2.00;;;1.57;;
1685;SDS011;840;47.980;7.830;2024-02-21T04:43:59;4.20;;;2.00;;
1685;SDS011;840;47.980;7.830;2024-02-21T04:46:28;2.63;;;1.47;;
1685;SDS011;840;47.980;7.830;2024-02-21T04:48:55;2.77;;;1.50;;
1685;SDS011;840;47.980;7.830;2024-02-21T04:51:22;3.70;;;1.90;;
1685;SDS011;840;47.980;7.830;2024-02-21T04:53:49;3.67;;;2.20;;
1685;SDS011;840;47.980;7.830;2024-02-21T04:56:15;3.37;;;2.10;;
1685;SDS011;840;47.980;7.830;2024-02-21T04:58:43;2.73;;;1.80;;
1685;SDS011;840;47.980;7.830;2024-02-21T05:01:10;2.20;;;1.93;;
1685;SDS011;840;47.980;7.830;2024-02-21T05:03:38;2.30;;;1.67;;
1685;SDS011;840;47.980;7.830;2024-02-21T05:06:05;1.63;;;1.53;;
1685;SDS011;840;47.980;7.830;2024-02-21T05:08:32;2.37;;;1.30;;
1685;SDS011;840;47.980;7.830;2024-02-21T05:10:59;3.77;;;1.50;;
1685;SDS011;840;47.980;7.830;2024-02-21T05:13:26;1.43;;;1.40;;
1685;SDS011;840;47.980;7.830;2024-02-21T05:15:54;3.93;;;1.80;;
1685;SDS011;840;47.980;7.830;2024-02-21T05:18:21;1.57;;;1.20;;
1685;SDS011;840;47.980;7.830;2024-02-21T05:20:47;1.60;;;1.50;;
1685;SDS011;840;47.980;7.830;2024-02-21T05:23:14;6.23;;;1.43;;
1685;SDS011;840;47.980;7.830;2024-02-21T05:25:41;3.57;;;1.80;;
1685;SDS011;840;47.980;7.830;2024-02-21T05:28:07;4.03;;;1.90;;
1685;SDS011;840;47.980;7.830;2024-02-21T05:30:34;1.20;;;1.10;;
1685;SDS011;840;47.980;7.830;2024-02-21T05:33:05;2.80;;;1.57;;
1685;SDS011;840;47.980;7.830;2024-02-21T05:35:32;4.13;;;2.07;;
1685;SDS011;840;47.980;7.830;2024-02-21T05:37:59;1.60;;;1.50;;
1685;SDS011;840;47.980;7.830;2024-02-21T05:40:26;3.30;;;1.80;;
1685;SDS011;840;47.980;7.830;2024-02-21T05:42:53;4.23;;;1.50;;
1685;SDS011;840;47.980;7.830;2024-02-21T05:45:20;3.57;;;2.03;;
1685;SDS011;840;47.980;7.830;2024-02-21T05:47:46;1.87;;;1.40;;
1685;SDS011;840;47.980;7.830;2024-02-21T05:50:15;3.83;;;1.77;;
1685;SDS011;840;47.980;7.830;2024-02-21T05:52:42;5.63;;;1.60;;
1685;SDS011;840;47.980;7.830;2024-02-21T05:55:09;5.80;;;1.53;;
1685;SDS011;840;47.980;7.830;2024-02-21T05:57:35;5.27;;;1.80;;
1685;SDS011;840;47.980;7.830;2024-02-21T06:00:03;5.23;;;1.37;;
1685;SDS011;840;47.980;7.830;2024-02-21T06:02:31;2.73;;;1.63;;
1685;SDS011;840;47.980;7.830;2024-02-21T06:04:58;3.57;;;1.90;;
1685;SDS011;840;47.980;7.830;2024-02-21T06:07:26;1.63;;;1.43;;
1685;SDS011;840;47.980;7.830;2024-02-21T06:09:52;4.80;;;2.40;;
1685;SDS011;840;47.980;7.830;2024-02-21T06:12:19;4.93;;;2.70;;
1685;SDS011;840;47.980;7.830;2024-02-21T06:14:46;2.27;;;2.03;;
1685;SDS011;840;47.980;7.830;2024-02-21T06:17:14;2.87;;;1.17;;
1685;SDS011;840;47.980;7.830;2024-02-21T06:19:41;1.43;;;1.33;;
1685;SDS011;840;47.980;7.830;2024-02-21T06:22:09;2.20;;;1.30;;
1685;SDS011;840;47.980;7.830;2024-02-21T06:24:37;1.60;;;1.50;;
1685;SDS011;840;47.980;7.830;2024-02-21T06:27:03;7.03;;;1.20;;
1685;SDS011;840;47.980;7.830;2024-02-21T06:29:31;1.57;;;1.47;;
1685;SDS011;840;47.980;7.830;2024-02-21T06:31:58;4.10;;;1.63;;
1685;SDS011;840;47.980;7.830;2024-02-21T06:34:25;6.80;;;1.90;;
1685;SDS011;840;47.980;7.830;2024-02-21T06:36:51;4.63;;;1.63;;
1685;SDS011;840;47.980;7.830;2024-02-21T06:39:18;2.80;;;1.80;;
1685;SDS011;840;47.980;7.830;2024-02-21T06:41:46;1.87;;;1.77;;
1685;SDS011;840;47.980;7.830;2024-02-21T06:44:15;2.40;;;1.60;;
1685;SDS011;840;47.980;7.830;2024-02-21T06:46:42;4.60;;;2.33;;
1685;SDS011;840;47.980;7.830;2024-02-21T06:49:08;2.80;;;1.80;;
1685;SDS011;840;47.980;7.830;2024-02-21T06:51:40;1.80;;;1.70;;
1685;SDS011;840;47.980;7.830;2024-02-21T06:54:07;2.40;;;1.40;;
1685;SDS011;840;47.980;7.830;2024-02-21T06:56:34;3.27;;;1.83;;
1685;SDS011;840;47.980;7.830;2024-02-21T06:59:03;2.03;;;1.57;;
1685;SDS011;840;47.980;7.830;2024-02-21T07:01:30;6.87;;;2.07;;
1685;SDS011;840;47.980;7.830;2024-02-21T07:03:56;3.70;;;1.93;;
1685;SDS011;840;47.980;7.830;2024-02-21T07:06:23;2.90;;;1.93;;
1685;SDS011;840;47.980;7.830;2024-02-21T07:08:50;6.87;;;2.30;;
1685;SDS011;840;47.980;7.830;2024-02-21T07:11:16;5.53;;;2.07;;
1685;SDS011;840;47.980;7.830;2024-02-21T07:13:43;1.73;;;1.60;;
1685;SDS011;840;47.980;7.830;2024-02-21T07:16:11;4.73;;;1.63;;
1685;SDS011;840;47.980;7.830;2024-02-21T07:18:38;4.80;;;2.10;;
1685;SDS011;840;47.980;7.830;2024-02-21T07:21:05;2.10;;;1.70;;
1685;SDS011;840;47.980;7.830;2024-02-21T07:23:32;3.23;;;1.60;;
1685;SDS011;840;47.980;7.830;2024-02-21T07:25:58;3.33;;;1.93;;
1685;SDS011;840;47.980;7.830;2024-02-21T07:28:25;3.00;;;1.93;;
1685;SDS011;840;47.980;7.830;2024-02-21T07:30:52;7.27;;;1.70;;
1685;SDS011;840;47.980;7.830;2024-02-21T07:33:20;3.50;;;1.90;;
1685;SDS011;840;47.980;7.830;2024-02-21T07:35:46;1.87;;;1.73;;
1685;SDS011;840;47.980;7.830;2024-02-21T07:38:13;3.43;;;1.80;;
1685;SDS011;840;47.980;7.830;2024-02-21T07:40:43;5.97;;;1.80;;
1685;SDS011;840;47.980;7.830;2024-02-21T07:43:10;3.47;;;2.07;;
1685;SDS011;840;47.980;7.830;2024-02-21T07:45:37;2.47;;;2.27;;
1685;SDS011;840;47.980;7.830;2024-02-21T07:48:04;3.27;;;1.80;;
1685;SDS011;840;47.980;7.830;2024-02-21T07:50:33;2.90;;;2.47;;
1685;SDS011;840;47.980;7.830;2024-02-21T07:52:59;3.00;;;1.80;;
1685;SDS011;840;47.980;7.830;2024-02-21T07:55:26;2.23;;;1.87;;
1685;SDS011;840;47.980;7.830;2024-02-21T07:57:53;3.50;;;1.67;;
1685;SDS011;840;47.980;7.830;2024-02-21T08:00:19;2.37;;;2.17;;
1685;SDS011;840;47.980;7.830;2024-02-21T08:02:47;3.30;;;2.00;;
1685;SDS011;840;47.980;7.830;2024-02-21T08:05:14;2.40;;;2.20;;
1685;SDS011;840;47.980;7.830;2024-02-21T08:07:42;3.67;;;2.37;;
1685;SDS011;840;47.980;7.830;2024-02-21T08:10:09;6.23;;;2.20;;
1685;SDS011;840;47.980;7.830;2024-02-21T08:12:36;2.13;;;1.80;;
1685;SDS011;840;47.980;7.830;2024-02-21T08:15:03;4.17;;;1.87;;
1685;SDS011;840;47.980;7.830;2024-02-21T08:17:30;4.97;;;3.13;;
1685;SDS011;840;47.980;7.830;2024-02-21T08:19:57;3.83;;;2.20;;
1685;SDS011;840;47.980;7.830;2024-02-21T08:22:22;4.23;;;2.00;;
1685;SDS011;840;47.980;7.830;2024-02-21T08:24:50;2.97;;;2.63;;
1685;SDS011;840;47.980;7.830;2024-02-21T08:27:17;3.07;;;2.37;;
1685;SDS011;840;47.980;7.830;2024-02-21T08:29:44;3.60;;;1.53;;
1685;SDS011;840;47.980;7.830;2024-02-21T08:32:11;4.13;;;1.80;;
1685;SDS011;840;47.980;7.830;2024-02-21T08:34:37;3.63;;;2.33;;
1685;SDS011;840;47.980;7.830;2024-02-21T08:37:04;3.30;;;2.17;;
1685;SDS011;840;47.980;7.830;2024-02-21T08:39:31;3.00;;;1.50;;
1685;SDS011;840;47.980;7.830;2024-02-21T08:41:59;5.30;;;1.93;;
1685;SDS011;840;47.980;7.830;2024-02-21T08:44:27;4.87;;;3.20;;
1685;SDS011;840;47.980;7.830;2024-02-21T08:46:54;2.27;;;2.03;;
1685;SDS011;840;47.980;7.830;2024-02-21T08:49:21;4.00;;;2.50;;
1685;SDS011;840;47.980;7.830;2024-02-21T08:51:48;3.63;;;2.37;;
1685;SDS011;840;47.980;7.830;2024-02-21T08:54:14;2.40;;;2.20;;
1685;SDS011;840;47.980;7.830;2024-02-21T08:56:41;8.30;;;1.73;;
1685;SDS011;840;47.980;7.830;2024-02-21T08:59:09;2.40;;;2.30;;
1685;SDS011;840;47.980;7.830;2024-02-21T09:01:36;3.70;;;2.20;;
1685;SDS011;840;47.980;7.830;2024-02-21T09:04:03;2.00;;;1.43;;
1685;SDS011;840;47.980;7.830;2024-02-21T09:06:30;5.23;;;1.90;;
1685;SDS011;840;47.980;7.830;2024-02-21T09:08:58;4.43;;;2.40;;
1685;SDS011;840;47.980;7.830;2024-02-21T09:11:25;4.47;;;2.17;;
1685;SDS011;840;47.980;7.830;2024-02-21T09:13:52;3.03;;;1.67;;
1685;SDS011;840;47.980;7.830;2024-02-21T09:16:20;2.03;;;1.93;;
1685;SDS011;840;47.980;7.830;2024-02-21T09:18:47;2.37;;;2.13;;
1685;SDS011;840;47.980;7.830;2024-02-21T09:21:14;3.13;;;2.10;;
1685;SDS011;840;47.980;7.830;2024-02-21T09:23:41;2.00;;;1.70;;
1685;SDS011;840;47.980;7.830;2024-02-21T09:26:08;3.77;;;1.70;;
1685;SDS011;840;47.980;7.830;2024-02-21T09:28:38;4.27;;;2.50;;
1685;SDS011;840;47.980;7.830;2024-02-21T09:31:05;2.53;;;1.73;;
1685;SDS011;840;47.980;7.830;2024-02-21T09:33:33;6.50;;;2.53;;
1685;SDS011;840;47.980;7.830;2024-02-21T09:36:00;4.93;;;1.90;;
1685;SDS011;840;47.980;7.830;2024-02-21T09:38:27;2.05;;;1.85;;
1685;SDS011;840;47.980;7.830;2024-02-21T09:40:55;1.67;;;1.57;;
1685;SDS011;840;47.980;7.830;2024-02-21T09:43:26;6.53;;;2.00;;
1685;SDS011;840;47.980;7.830;2024-02-21T09:45:54;3.50;;;1.80;;
1685;SDS011;840;47.980;7.830;2024-02-21T09:48:25;4.77;;;2.40;;
1685;SDS011;840;47.980;7.830;2024-02-21T09:51:11;2.50;;;1.70;;
1685;SDS011;840;47.980;7.830;2024-02-21T09:53:39;3.13;;;2.47;;
1685;SDS011;840;47.980;7.830;2024-02-21T09:56:08;3.97;;;2.03;;
1685;SDS011;840;47.980;7.830;2024-02-21T09:58:35;1.50;;;1.37;;
1685;SDS011;840;47.980;7.830;2024-02-21T10:01:03;4.10;;;1.67;;
1685;SDS011;840;47.980;7.830;2024-02-21T10:03:31;2.17;;;1.50;;
1685;SDS011;840;47.980;7.830;2024-02-21T10:05:59;3.73;;;2.07;;
1685;SDS011;840;47.980;7.830;2024-02-21T10:08:28;2.00;;;1.87;;
1685;SDS011;840;47.980;7.830;2024-02-21T10:10:55;3.40;;;2.00;;
1685;SDS011;840;47.980;7.830;2024-02-21T10:13:25;5.37;;;2.37;;
1685;SDS011;840;47.980;7.830;2024-02-21T10:16:00;3.73;;;2.50;;
1685;SDS011;840;47.980;7.830;2024-02-21T10:18:28;3.63;;;2.10;;
1685;SDS011;840;47.980;7.830;2024-02-21T10:21:02;3.07;;;2.00;;
1685;SDS011;840;47.980;7.830;2024-02-21T10:23:40;3.10;;;2.60;;
1685;SDS011;840;47.980;7.830;2024-02-21T10:26:07;4.43;;;2.20;;
1685;SDS011;840;47.980;7.830;2024-02-21T10:28:34;3.70;;;2.20;;
1685;SDS011;840;47.980;7.830;2024-02-21T10:31:01;5.82;;;2.42;;
1685;SDS011;840;47.980;7.830;2024-02-21T10:33:27;1.67;;;1.50;;
1685;SDS011;840;47.980;7.830;2024-02-21T10:36:05;2.43;;;1.90;;
1685;SDS011;840;47.980;7.830;2024-02-21T10:38:35;1.90;;;1.70;;
1685;SDS011;840;47.980;7.830;2024-02-21T10:41:04;2.10;;;2.00;;
1685;SDS011;840;47.980;7.830;2024-02-21T10:43:31;4.93;;;1.93;;
1685;SDS011;840;47.980;7.830;2024-02-21T10:46:03;4.43;;;2.03;;
1685;SDS011;840;47.980;7.830;2024-02-21T10:48:33;3.90;;;1.80;;
1685;SDS011;840;47.980;7.830;2024-02-21T10:51:10;3.40;;;2.37;;
1685;SDS011;840;47.980;7.830;2024-02-21T10:53:45;5.63;;;1.90;;
1685;SDS011;840;47.980;7.830;2024-02-21T10:56:21;2.40;;;1.90;;
1685;SDS011;840;47.980;7.830;2024-02-21T10:58:49;8.80;;;2.40;;
1685;SDS011;840;47.980;7.830;2024-02-21T11:01:17;8.17;;;2.77;;
1685;SDS011;840;47.980;7.830;2024-02-21T11:03:45;5.10;;;2.70;;
1685;SDS011;840;47.980;7.830;2024-02-21T11:06:13;3.27;;;1.90;;
1685;SDS011;840;47.980;7.830;2024-02-21T11:08:42;2.60;;;2.40;;
1685;SDS011;840;47.980;7.830;2024-02-21T11:11:11;2.37;;;1.83;;
1685;SDS011;840;47.980;7.830;2024-02-21T11:13:42;2.60;;;1.50;;
1685;SDS011;840;47.980;7.830;2024-02-21T11:16:11;2.57;;;2.20;;
1685;SDS011;840;47.980;7.830;2024-02-21T11:18:47;3.67;;;1.63;;
1685;SDS011;840;47.980;7.830;2024-02-21T11:21:14;3.73;;;1.80;;
1685;SDS011;840;47.980;7.830;2024-02-21T11:23:41;2.17;;;2.00;;
1685;SDS011;840;47.980;7.830;2024-02-21T11:26:08;3.90;;;2.37;;
1685;SDS011;840;47.980;7.830;2024-02-21T11:28:45;3.17;;;2.90;;
1685;SDS011;840;47.980;7.830;2024-02-21T11:31:22;2.73;;;2.23;;
1685;SDS011;840;47.980;7.830;2024-02-21T11:33:49;5.90;;;3.00;;
1685;SDS011;840;47.980;7.830;2024-02-21T11:36:23;2.27;;;2.03;;
1685;SDS011;840;47.980;7.830;2024-02-21T11:38:50;2.37;;;1.87;;
1685;SDS011;840;47.980;7.830;2024-02-21T11:41:19;2.60;;;2.00;;
1685;SDS011;840;47.980;7.830;2024-02-21T11:43:46;5.57;;;1.70;;
1685;SDS011;840;47.980;7.830;2024-02-21T11:46:14;4.40;;;2.00;;
1685;SDS011;840;47.980;7.830;2024-02-21T11:48:41;6.37;;;2.13;;
1685;SDS011;840;47.980;7.830;2024-02-21T11:51:09;3.73;;;1.70;;
1685;SDS011;840;47.980;7.830;2024-02-21T11:53:37;2.43;;;1.63;;
1685;SDS011;840;47.980;7.830;2024-02-21T11:56:03;2.67;;;2.07;;
1685;SDS011;840;47.980;7.830;2024-02-21T11:58:32;0.93;;;0.83;;
1685;SDS011;840;47.980;7.830;2024-02-21T12:00:59;2.53;;;1.33;;
1685;SDS011;840;47.980;7.830;2024-02-21T12:03:27;1.83;;;1.10;;
1685;SDS011;840;47.980;7.830;2024-02-21T12:05:54;5.03;;;1.30;;
1685;SDS011;840;47.980;7.830;2024-02-21T12:08:23;1.90;;;1.53;;
1685;SDS011;840;47.980;7.830;2024-02-21T12:10:50;2.27;;;0.83;;
1685;SDS011;840;47.980;7.830;2024-02-21T12:13:17;1.70;;;0.87;;
1685;SDS011;840;47.980;7.830;2024-02-21T12:15:49;1.23;;;0.70;;
1685;SDS011;840;47.980;7.830;2024-02-21T12:18:16;1.13;;;0.90;;
1685;SDS011;840;47.980;7.830;2024-02-21T12:20:43;2.67;;;0.90;;
1685;SDS011;840;47.980;7.830;2024-02-21T12:23:11;2.10;;;0.50;;
1685;SDS011;840;47.980;7.830;2024-02-21T12:25:38;1.50;;;0.90;;
1685;SDS011;840;47.980;7.830;2024-02-21T12:28:05;0.57;;;0.47;;
1685;SDS011;840;47.980;7.830;2024-02-21T12:30:32;1.33;;;0.70;;
1685;SDS011;840;47.980;7.830;2024-02-21T12:33:01;0.70;;;0.53;;
1685;SDS011;840;47.980;7.830;2024-02-21T12:35:29;1.33;;;0.77;;
1685;SDS011;840;47.980;7.830;2024-02-21T12:37:56;4.67;;;0.70;;
1685;SDS011;840;47.980;7.830;2024-02-21T12:40:23;2.20;;;0.80;;
1685;SDS011;840;47.980;7.830;2024-02-21T12:42:50;0.73;;;0.57;;
1685;SDS011;840;47.980;7.830;2024-02-21T12:45:17;0.70;;;0.70;;
1685;SDS011;840;47.980;7.830;2024-02-21T12:47:44;2.00;;;0.70;;
1685;SDS011;840;47.980;7.830;2024-02-21T12:50:12;1.13;;;0.67;;
1685;SDS011;840;47.980;7.830;2024-02-21T12:52:40;3.20;;;0.70;;
1685;SDS011;840;47.980;7.830;2024-02-21T12:55:07;0.93;;;0.47;;
1685;SDS011;840;47.980;7.830;2024-02-21T12:57:35;0.97;;;0.70;;
1685;SDS011;840;47.980;7.830;2024-02-21T13:00:02;0.70;;;0.60;;
1685;SDS011;840;47.980;7.830;2024-02-21T13:02:33;0.93;;;0.70;;
1685;SDS011;840;47.980;7.830;2024-02-21T13:05:00;1.27;;;0.50;;
1685;SDS011;840;47.980;7.830;2024-02-21T13:07:28;0.90;;;0.50;;
1685;SDS011;840;47.980;7.830;2024-02-21T13:09:57;0.50;;;0.40;;
1685;SDS011;840;47.980;7.830;2024-02-21T13:12:23;1.07;;;0.90;;
1685;SDS011;840;47.980;7.830;2024-02-21T13:14:52;1.60;;;0.60;;
1685;SDS011;840;47.980;7.830;2024-02-21T13:17:19;0.80;;;0.80;;
1685;SDS011;840;47.980;7.830;2024-02-21T13:19:47;1.23;;;0.70;;
1685;SDS011;840;47.980;7.830;2024-02-21T13:22:14;2.23;;;1.30;;
1685;SDS011;840;47.980;7.830;2024-02-21T13:24:42;0.70;;;0.70;;
1685;SDS011;840;47.980;7.830;2024-02-21T13:27:08;0.63;;;0.63;;
1685;SDS011;840;47.980;7.830;2024-02-21T13:29:36;0.53;;;0.50;;
1685;SDS011;840;47.980;7.830;2024-02-21T13:32:02;1.07;;;0.70;;
1685;SDS011;840;47.980;7.830;2024-02-21T13:34:31;0.60;;;0.60;;
1685;SDS011;840;47.980;7.830;2024-02-21T13:36:57;0.60;;;0.57;;
1685;SDS011;840;47.980;7.830;2024-02-21T13:39:25;1.80;;;0.83;;
1685;SDS011;840;47.980;7.830;2024-02-21T13:41:53;1.33;;;0.53;;
1685;SDS011;840;47.980;7.830;2024-02-21T13:44:19;1.23;;;1.00;;
1685;SDS011;840;47.980;7.830;2024-02-21T13:46:46;1.20;;;1.20;;
1685;SDS011;840;47.980;7.830;2024-02-21T13:49:13;1.33;;;1.00;;
1685;SDS011;840;47.980;7.830;2024-02-21T13:51:40;2.60;;;0.87;;
1685;SDS011;840;47.980;7.830;2024-02-21T13:54:09;1.50;;;1.10;;
1685;SDS011;840;47.980;7.830;2024-02-21T13:56:36;2.07;;;1.17;;
1685;SDS011;840;47.980;7.830;2024-02-21T13:59:04;3.33;;;2.80;;
1685;SDS011;840;47.980;7.830;2024-02-21T14:01:31;1.90;;;1.20;;
1685;SDS011;840;47.980;7.830;2024-02-21T14:03:58;5.63;;;1.50;;
1685;SDS011;840;47.980;7.830;2024-02-21T14:06:25;1.23;;;1.10;;
1685;SDS011;840;47.980;7.830;2024-02-21T14:08:52;2.70;;;1.87;;
1685;SDS011;840;47.980;7.830;2024-02-21T14:11:19;1.63;;;1.30;;
1685;SDS011;840;47.980;7.830;2024-02-21T14:13:45;2.78;;;1.50;;
1685;SDS011;840;47.980;7.830;2024-02-21T14:16:14;1.17;;;1.07;;
1685;SDS011;840;47.980;7.830;2024-02-21T14:18:40;2.57;;;1.27;;
1685;SDS011;840;47.980;7.830;2024-02-21T14:21:07;2.70;;;1.30;;
1685;SDS011;840;47.980;7.830;2024-02-21T14:23:35;4.60;;;1.27;;
1685;SDS011;840;47.980;7.830;2024-02-21T14:26:02;1.17;;;0.97;;
1685;SDS011;840;47.980;7.830;2024-02-21T14:28:29;1.53;;;0.97;;
1685;SDS011;840;47.980;7.830;2024-02-21T14:30:56;2.10;;;1.07;;
1685;SDS011;840;47.980;7.830;2024-02-21T14:33:26;3.10;;;1.40;;
1685;SDS011;840;47.980;7.830;2024-02-21T14:35:53;2.80;;;1.60;;
1685;SDS011;840;47.980;7.830;2024-02-21T14:38:19;1.70;;;1.23;;
1685;SDS011;840;47.980;7.830;2024-02-21T14:40:46;3.60;;;1.10;;
1685;SDS011;840;47.980;7.830;2024-02-21T14:43:14;3.10;;;2.20;;
1685;SDS011;840;47.980;7.830;2024-02-21T14:45:40;1.73;;;1.30;;
1685;SDS011;840;47.980;7.830;2024-02-21T14:48:08;2.00;;;1.27;;
1685;SDS011;840;47.980;7.830;2024-02-21T14:50:36;6.60;;;1.90;;
1685;SDS011;840;47.980;7.830;2024-02-21T14:53:03;1.20;;;1.10;;
1685;SDS011;840;47.980;7.830;2024-02-21T14:55:30;1.53;;;1.33;;
1685;SDS011;840;47.980;7.830;2024-02-21T14:57:56;1.60;;;1.40;;
1685;SDS011;840;47.980;7.830;2024-02-21T15:00:23;2.43;;;1.43;;
1685;SDS011;840;47.980;7.830;2024-02-21T15:02:55;3.37;;;1.97;;
1685;SDS011;840;47.980;7.830;2024-02-21T15:05:22;3.70;;;1.23;;
1685;SDS011;840;47.980;7.830;2024-02-21T15:07:50;2.20;;;1.70;;
1685;SDS011;840;47.980;7.830;2024-02-21T15:10:17;1.50;;;1.30;;
1685;SDS011;840;47.980;7.830;2024-02-21T15:12:44;3.27;;;1.70;;
1685;SDS011;840;47.980;7.830;2024-02-21T15:15:11;4.33;;;1.17;;
1685;SDS011;840;47.980;7.830;2024-02-21T15:17:37;1.43;;;1.33;;
1685;SDS011;840;47.980;7.830;2024-02-21T15:20:05;2.43;;;1.00;;
1685;SDS011;840;47.980;7.830;2024-02-21T15:22:32;2.50;;;1.90;;
1685;SDS011;840;47.980;7.830;2024-02-21T15:25:02;1.20;;;1.10;;
1685;SDS011;840;47.980;7.830;2024-02-21T15:27:30;1.80;;;1.10;;
1685;SDS011;840;47.980;7.830;2024-02-21T15:29:57;1.50;;;1.23;;
1685;SDS011;840;47.980;7.830;2024-02-21T15:32:24;2.20;;;1.50;;